createdAt,value
2022-10-26T00:00:45.766Z,102379.13
2022-10-26T00:03:12.407Z,102381.09
2022-10-26T00:05:38.990Z,102381.72
2022-10-26T00:08:05.841Z,102371.44
2022-10-26T00:10:35.255Z,102364.81
2022-10-26T00:13:01.891Z,102312.19
2022-10-26T00:15:28.804Z,102361.34
2022-10-26T00:17:55.367Z,102344.09
2022-10-26T00:20:21.790Z,102347.88
2022-10-26T00:22:48.216Z,102351.81
2022-10-26T00:25:14.860Z,102327.69
2022-10-26T00:27:41.221Z,102320.97
2022-10-26T00:30:08.256Z,102326.38
2022-10-26T00:32:34.912Z,102303.72
2022-10-26T00:35:10.568Z,102269.78
2022-10-26T00:37:48.232Z,102313.50
2022-10-26T00:40:15.009Z,102312.56
2022-10-26T00:42:41.380Z,102291.06
2022-10-26T00:45:20.990Z,102319.59
2022-10-26T00:47:50.956Z,102292.63
2022-10-26T00:50:34.704Z,102296.88
2022-10-26T00:53:04.569Z,102267.22
2022-10-26T00:55:36.117Z,102295.03
2022-10-26T00:58:05.270Z,102287.97
2022-10-26T01:00:31.858Z,102283.22
2022-10-26T01:03:01.679Z,102258.03
2022-10-26T01:05:29.021Z,102248.09
2022-10-26T01:07:55.571Z,102224.44
2022-10-26T01:10:22.735Z,102285.84
2022-10-26T01:12:49.298Z,102226.88
2022-10-26T01:15:16.180Z,102270.91
2022-10-26T01:17:54.819Z,102274.22
2022-10-26T01:20:33.500Z,102270.09
2022-10-26T01:23:11.984Z,102264.28
2022-10-26T01:25:51.816Z,102266.59
2022-10-26T01:28:37.606Z,102263.53
2022-10-26T01:31:08.845Z,102256.00
2022-10-26T01:33:42.751Z,102265.94
2022-10-26T01:36:40.413Z,102271.81
2022-10-26T01:39:40.218Z,102269.34
2022-10-26T01:42:09.805Z,102266.03
2022-10-26T01:44:43.132Z,102260.66
2022-10-26T01:47:15.406Z,102245.38
2022-10-26T01:49:47.085Z,102203.66
2022-10-26T01:52:13.575Z,102245.97
2022-10-26T01:54:39.991Z,102240.50
2022-10-26T01:57:09.899Z,102234.34
2022-10-26T01:59:42.416Z,102230.38
2022-10-26T02:02:20.961Z,102233.47
2022-10-26T02:04:50.265Z,102237.41
2022-10-26T02:07:27.639Z,102192.50
2022-10-26T02:10:05.018Z,102228.56
2022-10-26T02:12:59.360Z,102221.25
2022-10-26T02:15:53.515Z,102233.09
2022-10-26T02:18:51.012Z,102234.91
2022-10-26T02:21:24.507Z,102218.03
2022-10-26T02:23:52.554Z,102195.03
2022-10-26T02:26:24.168Z,102214.72
2022-10-26T02:28:53.847Z,102175.69
2022-10-26T02:31:21.011Z,102193.97
2022-10-26T02:33:51.637Z,102196.53
2022-10-26T02:36:24.621Z,102210.97
2022-10-26T02:38:53.068Z,102191.56
2022-10-26T02:41:21.698Z,102184.78
2022-10-26T02:43:55.492Z,102194.78
2022-10-26T02:46:25.283Z,102132.63
2022-10-26T02:48:51.750Z,102186.31
2022-10-26T02:51:25.069Z,102134.25
2022-10-26T02:53:59.137Z,102135.44
2022-10-26T02:56:36.520Z,102149.81
2022-10-26T02:59:07.914Z,102185.75
2022-10-26T03:01:35.522Z,102190.19
2022-10-26T03:04:02.281Z,102179.56
2022-10-26T03:06:28.672Z,102183.31
2022-10-26T03:08:55.151Z,102129.78
2022-10-26T03:11:21.591Z,102176.09
2022-10-26T03:13:48.018Z,102173.31
2022-10-26T03:16:14.455Z,102168.00
2022-10-26T03:18:40.825Z,102097.09
2022-10-26T03:21:07.249Z,102121.13
2022-10-26T03:23:33.616Z,102168.72
2022-10-26T03:26:00.234Z,102166.47
2022-10-26T03:28:27.212Z,102188.56
2022-10-26T03:30:53.644Z,102182.59
2022-10-26T03:33:21.548Z,102170.63
2022-10-26T03:35:59.757Z,102162.94
2022-10-26T03:38:26.256Z,102176.50
2022-10-26T03:40:52.770Z,102133.41
2022-10-26T03:43:19.296Z,102179.41
2022-10-26T03:45:45.747Z,102171.41
2022-10-26T03:48:12.572Z,102153.09
2022-10-26T03:50:39.086Z,102162.72
2022-10-26T03:53:06.130Z,102090.63
2022-10-26T03:55:32.673Z,102132.16
2022-10-26T03:57:59.071Z,102133.47
2022-10-26T04:00:25.592Z,102096.97
2022-10-26T04:02:59.833Z,102106.28
2022-10-26T04:05:28.351Z,102149.19
2022-10-26T04:08:00.398Z,102141.34
2022-10-26T04:10:27.946Z,102096.97
2022-10-26T04:12:55.237Z,102131.84
2022-10-26T04:15:22.315Z,102137.84
2022-10-26T04:17:49.038Z,102144.22
2022-10-26T04:20:15.776Z,102133.03
2022-10-26T04:22:42.136Z,102085.53
2022-10-26T04:25:08.850Z,102135.28
2022-10-26T04:27:35.242Z,102130.06
2022-10-26T04:30:01.656Z,102132.75
2022-10-26T04:32:28.035Z,102130.31
2022-10-26T04:34:54.391Z,102080.91
2022-10-26T04:37:20.761Z,102080.75
2022-10-26T04:39:47.149Z,102127.50
2022-10-26T04:42:13.565Z,102069.31
2022-10-26T04:44:39.949Z,102066.56
2022-10-26T04:47:06.321Z,102127.34
2022-10-26T04:49:32.701Z,102126.72
2022-10-26T04:51:59.093Z,102124.81
2022-10-26T04:54:25.472Z,102127.25
2022-10-26T04:56:51.891Z,102062.81
2022-10-26T04:59:18.309Z,102069.19
2022-10-26T05:01:44.803Z,102112.63
2022-10-26T05:04:11.411Z,102081.56
2022-10-26T05:06:37.797Z,102121.41
2022-10-26T05:09:04.543Z,102057.00
2022-10-26T05:11:30.987Z,102107.56
2022-10-26T05:13:57.342Z,102055.66
2022-10-26T05:16:23.768Z,102111.16
2022-10-26T05:18:50.237Z,102111.91
2022-10-26T05:21:17.510Z,102066.22
2022-10-26T05:23:43.897Z,102124.00
2022-10-26T05:26:10.269Z,102108.00
2022-10-26T05:28:36.676Z,102108.34
2022-10-26T05:31:03.083Z,102102.19
2022-10-26T05:33:29.465Z,102107.69
2022-10-26T05:35:55.898Z,102105.69
2022-10-26T05:38:22.388Z,102107.50
2022-10-26T05:40:53.270Z,102105.50
2022-10-26T05:43:23.700Z,102037.41
2022-10-26T05:45:51.162Z,102090.41
2022-10-26T05:48:17.612Z,102049.47
2022-10-26T05:50:44.939Z,102034.66
2022-10-26T05:53:11.527Z,102035.75
2022-10-26T05:55:38.393Z,102076.00
2022-10-26T05:58:09.426Z,102082.25
2022-10-26T06:00:37.004Z,102056.91
2022-10-26T06:03:21.895Z,102062.03
2022-10-26T06:05:52.769Z,102015.59
2022-10-26T06:08:20.467Z,102070.66
2022-10-26T06:10:47.696Z,102067.22
2022-10-26T06:13:14.690Z,102017.63
2022-10-26T06:16:02.697Z,102064.59
2022-10-26T06:18:34.932Z,102079.34
2022-10-26T06:21:28.426Z,102064.53
2022-10-26T06:24:24.426Z,102066.97
2022-10-26T06:27:28.309Z,102067.34
2022-10-26T06:30:09.424Z,102037.03
2022-10-26T06:32:36.532Z,102078.78
2022-10-26T06:35:31.714Z,102077.34
2022-10-26T06:38:02.149Z,102096.56
2022-10-26T06:40:32.167Z,102094.34
2022-10-26T06:42:59.935Z,102097.88
2022-10-26T06:45:26.728Z,102027.72
2022-10-26T06:48:16.629Z,102066.53
2022-10-26T06:51:03.418Z,102100.59
2022-10-26T06:53:37.419Z,102097.56
2022-10-26T06:56:04.336Z,102044.88
2022-10-26T06:58:34.863Z,102080.19
2022-10-26T07:01:01.934Z,102098.88
2022-10-26T07:03:28.359Z,102095.44
2022-10-26T07:05:54.755Z,102106.28
2022-10-26T07:08:21.235Z,102113.16
2022-10-26T07:10:47.681Z,102114.59
2022-10-26T07:13:14.278Z,102115.41
2022-10-26T07:15:40.755Z,102047.75
2022-10-26T07:18:07.909Z,102093.81
2022-10-26T07:20:39.397Z,102112.78
2022-10-26T07:23:07.091Z,102113.09
2022-10-26T07:25:34.878Z,102069.97
2022-10-26T07:28:01.981Z,102068.38
2022-10-26T07:30:30.247Z,102078.34
2022-10-26T07:33:23.186Z,102139.63
2022-10-26T07:35:49.723Z,102100.13
2022-10-26T07:38:16.098Z,102147.03
2022-10-26T07:40:42.522Z,102134.78
2022-10-26T07:43:08.927Z,102138.03
2022-10-26T07:45:35.358Z,102141.69
2022-10-26T07:48:01.762Z,102093.78
2022-10-26T07:50:28.426Z,102153.38
2022-10-26T07:52:54.789Z,102158.94
2022-10-26T07:55:21.265Z,102105.81
2022-10-26T07:57:51.011Z,102162.22
2022-10-26T08:00:21.075Z,102161.47
2022-10-26T08:02:47.527Z,102167.19
2022-10-26T08:05:14.009Z,102095.50
2022-10-26T08:07:41.950Z,102170.94
2022-10-26T08:10:08.773Z,102157.22
2022-10-26T08:12:35.263Z,102097.88
2022-10-26T08:15:01.622Z,102140.50
2022-10-26T08:17:29.149Z,102113.56
2022-10-26T08:19:55.616Z,102085.03
2022-10-26T08:22:22.063Z,102119.72
2022-10-26T08:24:48.454Z,102132.50
2022-10-26T08:27:15.034Z,102143.25
2022-10-26T08:29:42.088Z,102101.53
2022-10-26T08:32:08.610Z,102092.44
2022-10-26T08:34:35.126Z,102163.28
2022-10-26T08:37:01.601Z,102125.03
2022-10-26T08:39:27.979Z,102184.97
2022-10-26T08:42:19.410Z,102199.56
2022-10-26T08:44:48.301Z,102143.47
2022-10-26T08:47:24.821Z,102204.03
2022-10-26T08:50:02.106Z,102217.59
2022-10-26T08:52:56.204Z,102163.09
2022-10-26T08:55:29.101Z,102234.50
2022-10-26T08:57:56.407Z,102242.06
2022-10-26T09:00:25.313Z,102260.56
2022-10-26T09:02:53.053Z,102273.19
2022-10-26T09:05:27.021Z,102271.78
2022-10-26T09:08:22.522Z,102298.09
2022-10-26T09:11:09.417Z,102298.44
2022-10-26T09:13:40.878Z,102312.75
2022-10-26T09:16:24.476Z,102271.41
2022-10-26T09:19:01.846Z,102347.69
2022-10-26T09:21:35.365Z,102334.75
2022-10-26T09:24:25.655Z,102287.25
2022-10-26T09:26:58.706Z,102345.44
2022-10-26T09:29:36.092Z,102286.50
2022-10-26T09:32:04.260Z,102320.69
2022-10-26T09:34:48.452Z,102381.63
2022-10-26T09:37:25.508Z,102353.31
2022-10-26T09:40:08.335Z,102368.22
2022-10-26T09:42:47.037Z,102357.25
2022-10-26T09:45:20.311Z,102333.41
2022-10-26T09:47:51.308Z,102284.72
2022-10-26T09:50:36.174Z,102338.19
2022-10-26T09:53:03.839Z,102308.31
2022-10-26T09:55:33.143Z,102326.91
2022-10-26T09:58:03.272Z,102333.81
2022-10-26T10:00:30.484Z,102321.06
2022-10-26T10:02:58.638Z,102308.09
2022-10-26T10:05:49.720Z,102313.53
2022-10-26T10:08:19.257Z,102307.28
2022-10-26T10:11:01.935Z,102318.81
2022-10-26T10:13:38.203Z,102279.16
2022-10-26T10:16:10.340Z,102322.63
2022-10-26T10:18:37.874Z,102292.69
2022-10-26T10:21:05.264Z,102288.06
2022-10-26T10:23:37.677Z,102297.94
2022-10-26T10:26:07.440Z,102352.06
2022-10-26T10:28:35.044Z,102334.81
2022-10-26T10:31:05.339Z,102301.75
2022-10-26T10:33:33.761Z,102350.84
2022-10-26T10:36:00.992Z,102307.28
2022-10-26T10:38:27.663Z,102342.13
2022-10-26T10:40:57.854Z,102352.19
2022-10-26T10:43:25.691Z,102300.34
2022-10-26T10:45:57.177Z,102355.72
2022-10-26T10:48:28.286Z,102352.63
2022-10-26T10:50:58.504Z,102294.38
2022-10-26T10:53:45.085Z,102358.50
2022-10-26T10:56:47.291Z,102380.25
2022-10-26T10:59:38.278Z,102380.66
2022-10-26T11:02:13.988Z,102388.63
2022-10-26T11:04:55.366Z,102415.34
2022-10-26T11:07:24.102Z,102410.06
2022-10-26T11:12:53.798Z,102358.91
2022-10-26T11:15:24.727Z,102414.97
2022-10-26T11:18:08.410Z,102403.16
2022-10-26T11:20:42.976Z,102422.66
2022-10-26T11:23:19.165Z,102419.81
2022-10-26T11:26:00.621Z,102438.53
2022-10-26T11:28:42.114Z,102447.97
2022-10-26T11:31:16.280Z,102394.19
2022-10-26T11:34:13.319Z,102465.75
2022-10-26T11:36:44.194Z,102477.13
2022-10-26T11:39:16.264Z,102503.53
2022-10-26T11:41:47.179Z,102510.00
2022-10-26T11:44:29.484Z,102516.41
2022-10-26T11:47:02.389Z,102473.91
2022-10-26T11:49:50.413Z,102517.19
2022-10-26T11:52:24.967Z,102508.56
2022-10-26T11:54:56.437Z,102548.03
2022-10-26T11:57:25.662Z,102575.47
2022-10-26T12:00:02.402Z,102559.75
2022-10-26T12:02:28.892Z,102516.97
2022-10-26T12:05:33.035Z,102570.13
2022-10-26T12:08:06.237Z,102571.56
2022-10-26T12:10:35.274Z,102575.16
2022-10-26T12:13:24.890Z,102561.31
2022-10-26T12:16:04.678Z,102570.16
2022-10-26T12:18:54.985Z,102575.31
2022-10-26T12:21:26.375Z,102550.81
2022-10-26T12:23:54.343Z,102550.75
2022-10-26T12:26:38.797Z,102588.75
2022-10-26T12:29:05.170Z,102603.03
2022-10-26T12:31:37.414Z,102598.25
2022-10-26T12:34:10.275Z,102594.50
2022-10-26T12:36:54.870Z,102573.13
2022-10-26T12:39:35.677Z,102634.25
2022-10-26T12:42:07.828Z,102622.97
2022-10-26T12:44:45.358Z,102625.44
2022-10-26T12:47:31.720Z,102657.72
2022-10-26T12:49:59.191Z,102631.91
2022-10-26T12:52:28.367Z,102679.44
2022-10-26T12:55:07.335Z,102625.00
2022-10-26T12:57:47.300Z,102637.81
2022-10-26T13:00:17.718Z,102698.78
2022-10-26T13:02:50.634Z,102718.16
2022-10-26T13:05:29.255Z,102725.69
2022-10-26T13:08:03.610Z,102726.72
2022-10-26T13:10:30.389Z,102696.66
2022-10-26T13:12:59.585Z,102764.38
2022-10-26T13:15:39.235Z,102712.38
2022-10-26T13:18:17.358Z,102775.22
2022-10-26T13:21:07.933Z,102874.84
2022-10-26T13:23:39.268Z,102907.34
2022-10-26T13:26:11.551Z,102907.16
2022-10-26T13:28:37.982Z,102913.41
2022-10-26T13:31:11.164Z,102891.69
2022-10-26T13:33:41.059Z,102870.84
2022-10-26T13:36:18.184Z,102866.44
2022-10-26T13:38:46.796Z,102852.78
2022-10-26T13:41:30.456Z,102855.69
2022-10-26T13:43:59.012Z,102812.94
2022-10-26T13:46:27.507Z,102864.56
2022-10-26T13:49:00.529Z,102877.06
2022-10-26T13:51:39.844Z,102875.38
2022-10-26T13:54:34.060Z,102881.88
2022-10-26T13:57:37.933Z,102866.72
2022-10-26T14:00:16.486Z,102847.19
2022-10-26T14:02:43.633Z,102838.63
2022-10-26T14:05:11.732Z,102829.19
2022-10-26T14:07:50.488Z,102830.44
2022-10-26T14:10:27.211Z,102827.94
2022-10-26T14:12:54.163Z,102794.22
2022-10-26T14:15:29.704Z,102816.75
2022-10-26T14:17:57.467Z,102774.34
2022-10-26T14:20:26.041Z,102820.38
2022-10-26T14:22:52.687Z,102822.72
2022-10-26T14:25:41.922Z,102758.50
2022-10-26T14:28:27.668Z,102823.88
2022-10-26T14:30:54.129Z,102838.56
2022-10-26T14:33:27.471Z,102820.56
2022-10-26T14:35:54.721Z,102778.56
2022-10-26T14:38:25.860Z,102841.19
2022-10-26T14:40:56.202Z,102783.19
2022-10-26T14:43:24.800Z,102827.31
2022-10-26T14:45:53.633Z,102764.09
2022-10-26T14:48:28.048Z,102756.00
2022-10-26T14:51:18.684Z,102803.09
2022-10-26T14:53:50.755Z,102804.75
2022-10-26T14:56:35.249Z,102793.78
2022-10-26T14:59:12.070Z,102784.19
2022-10-26T15:01:57.203Z,102793.75
2022-10-26T15:04:35.893Z,102788.06
2022-10-26T15:07:11.242Z,102787.66
2022-10-26T15:09:39.012Z,102789.63
2022-10-26T15:12:06.235Z,102792.13
2022-10-26T15:14:34.131Z,102759.38
2022-10-26T15:17:00.862Z,102766.69
2022-10-26T15:19:27.910Z,102769.72
2022-10-26T15:21:54.445Z,102811.25
2022-10-26T15:24:20.872Z,102859.09
2022-10-26T15:26:47.811Z,102864.81
2022-10-26T15:29:37.009Z,102881.53
2022-10-26T15:34:37.346Z,102880.13
2022-10-26T15:37:03.915Z,102876.69
2022-10-26T15:39:30.451Z,102865.31
2022-10-26T15:41:56.917Z,102865.31
2022-10-26T15:44:23.315Z,102866.94
2022-10-26T15:46:50.080Z,102866.94
2022-10-26T15:49:19.600Z,102885.84
2022-10-26T15:51:47.994Z,102895.63
2022-10-26T15:54:14.744Z,102890.75
2022-10-26T15:56:42.073Z,102907.84
2022-10-26T15:59:17.410Z,102906.00
2022-10-26T16:01:44.324Z,102857.19
2022-10-26T16:04:11.693Z,102908.03
2022-10-26T16:06:40.334Z,102902.56
2022-10-26T16:09:11.073Z,102886.47
2022-10-26T16:11:37.489Z,102880.97
2022-10-26T16:14:04.200Z,102874.88
2022-10-26T16:16:31.389Z,102868.78
2022-10-26T16:19:18.500Z,102868.16
2022-10-26T16:21:44.206Z,102813.81
2022-10-26T16:24:11.758Z,102851.03
2022-10-26T16:26:38.230Z,102793.25
2022-10-26T16:29:04.685Z,102849.38
2022-10-26T16:31:31.080Z,102830.25
2022-10-26T16:34:00.296Z,102798.72
2022-10-26T16:36:30.524Z,102758.03
2022-10-26T16:38:57.015Z,102747.44
2022-10-26T16:43:56.009Z,102778.97
2022-10-26T16:46:22.502Z,102763.31
2022-10-26T16:48:50.060Z,102739.50
2022-10-26T16:51:25.129Z,102754.91
2022-10-26T16:53:53.382Z,102684.16
2022-10-26T16:56:22.015Z,102683.94
2022-10-26T16:58:48.810Z,102727.91
2022-10-26T17:01:17.425Z,102707.59
2022-10-26T17:03:44.769Z,102668.56
2022-10-26T17:06:11.515Z,102712.34
2022-10-26T17:08:37.948Z,102712.75
2022-10-26T17:11:13.422Z,102704.97
2022-10-26T17:13:40.647Z,102660.47
2022-10-26T17:16:18.511Z,102705.84
2022-10-26T17:18:45.869Z,102658.72
2022-10-26T17:21:13.536Z,102716.00
2022-10-26T17:23:40.027Z,102720.47
2022-10-26T17:26:08.591Z,102653.75
2022-10-26T17:28:35.330Z,102723.63
2022-10-26T17:31:06.571Z,102711.41
2022-10-26T17:33:34.935Z,102710.78
2022-10-26T17:36:02.676Z,102667.84
2022-10-26T17:38:33.933Z,102705.47
2022-10-26T17:41:01.495Z,102645.28
2022-10-26T17:43:33.588Z,102692.03
2022-10-26T17:46:01.562Z,102679.25
2022-10-26T17:48:28.899Z,102666.03
2022-10-26T17:50:57.861Z,102674.56
2022-10-26T17:53:24.583Z,102682.91
2022-10-26T17:55:59.272Z,102678.06
2022-10-26T17:58:25.681Z,102667.69
2022-10-26T18:00:52.120Z,102623.53
2022-10-26T18:03:18.583Z,102623.72
2022-10-26T18:05:51.596Z,102677.34
2022-10-26T18:08:18.444Z,102670.66
2022-10-26T18:10:53.427Z,102677.50
2022-10-26T18:13:19.844Z,102669.41
2022-10-26T18:15:46.313Z,102658.41
2022-10-26T18:18:13.436Z,102651.44
2022-10-26T18:20:40.131Z,102613.78
2022-10-26T18:23:06.698Z,102673.41
2022-10-26T18:25:33.284Z,102671.94
2022-10-26T18:27:59.756Z,102648.28
2022-10-26T18:30:26.187Z,102659.69
2022-10-26T18:32:53.096Z,102651.06
2022-10-26T18:35:20.118Z,102625.84
2022-10-26T18:37:46.552Z,102648.22
2022-10-26T18:40:13.298Z,102629.91
2022-10-26T18:42:39.679Z,102599.00
2022-10-26T18:45:06.552Z,102632.97
2022-10-26T18:47:33.416Z,102648.00
2022-10-26T18:49:59.813Z,102646.72
2022-10-26T18:52:26.216Z,102635.97
2022-10-26T18:54:54.078Z,102656.00
2022-10-26T18:57:21.141Z,102660.63
2022-10-26T18:59:51.436Z,102650.44
2022-10-26T19:02:20.396Z,102668.22
2022-10-26T19:04:46.783Z,102677.31
2022-10-26T19:07:13.191Z,102681.38
2022-10-26T19:09:39.579Z,102691.47
2022-10-26T19:12:06.173Z,102710.97
2022-10-26T19:14:32.556Z,102650.91
2022-10-26T19:16:58.955Z,102646.00
2022-10-26T19:19:25.381Z,102705.28
2022-10-26T19:21:51.830Z,102709.28
2022-10-26T19:24:20.651Z,102712.22
2022-10-26T19:26:48.035Z,102724.81
2022-10-26T19:29:16.625Z,102731.97
2022-10-26T19:31:47.336Z,102738.66
2022-10-26T19:34:15.184Z,102684.13
2022-10-26T19:36:42.261Z,102735.09
2022-10-26T19:39:08.648Z,102715.91
2022-10-26T19:41:35.062Z,102748.91
2022-10-26T19:44:01.556Z,102737.34
2022-10-26T19:46:29.675Z,102756.41
2022-10-26T19:48:58.407Z,102745.91
2022-10-26T19:51:26.201Z,102759.72
2022-10-26T19:53:53.078Z,102736.97
2022-10-26T19:56:19.601Z,102760.41
2022-10-26T19:58:46.509Z,102752.78
2022-10-26T20:01:14.707Z,102755.72
2022-10-26T20:03:41.430Z,102780.72
2022-10-26T20:06:10.925Z,102728.56
2022-10-26T20:08:38.615Z,102779.59
2022-10-26T20:11:10.171Z,102793.88
2022-10-26T20:13:40.336Z,102738.44
2022-10-26T20:16:07.911Z,102759.06
2022-10-26T20:18:34.677Z,102795.75
2022-10-26T20:21:01.262Z,102751.38
2022-10-26T20:23:27.696Z,102799.78
2022-10-26T20:25:54.112Z,102777.47
2022-10-26T20:28:20.508Z,102762.69
2022-10-26T20:30:48.456Z,102811.66
2022-10-26T20:33:15.020Z,102797.03
2022-10-26T20:35:41.417Z,102808.91
2022-10-26T20:38:15.235Z,102833.22
2022-10-26T20:40:41.894Z,102810.72
2022-10-26T20:43:10.471Z,102798.69
2022-10-26T20:45:37.230Z,102816.22
2022-10-26T20:48:03.989Z,102834.97
2022-10-26T20:50:31.037Z,102806.31
2022-10-26T20:53:11.511Z,102825.28
2022-10-26T20:55:42.794Z,102827.66
2022-10-26T20:58:20.434Z,102812.38
2022-10-26T21:01:06.679Z,102837.00
2022-10-26T21:03:33.654Z,102836.44
2022-10-26T21:06:00.058Z,102833.06
2022-10-26T21:08:26.473Z,102831.50
2022-10-26T21:10:53.125Z,102832.25
2022-10-26T21:13:19.547Z,102835.69
2022-10-26T21:15:45.985Z,102826.47
2022-10-26T21:18:12.500Z,102811.13
2022-10-26T21:20:38.958Z,102823.91
2022-10-26T21:23:05.359Z,102826.38
2022-10-26T21:25:31.742Z,102821.34
2022-10-26T21:27:58.675Z,102816.34
2022-10-26T21:30:25.548Z,102816.00
2022-10-26T21:32:53.140Z,102778.00
2022-10-26T21:35:20.846Z,102835.81
2022-10-26T21:37:48.102Z,102831.13
2022-10-26T21:40:14.813Z,102777.53
2022-10-26T21:42:41.260Z,102836.78
2022-10-26T21:45:08.249Z,102848.38
2022-10-26T21:47:34.638Z,102806.75
2022-10-26T21:50:01.072Z,102850.81
2022-10-26T21:52:27.513Z,102790.00
2022-10-26T21:54:53.886Z,102837.72
2022-10-26T21:57:20.237Z,102789.38
2022-10-26T21:59:46.676Z,102845.69
2022-10-26T22:02:13.158Z,102833.44
2022-10-26T22:04:39.661Z,102784.41
2022-10-26T22:07:06.064Z,102835.88
2022-10-26T22:09:37.356Z,102840.84
2022-10-26T22:12:11.476Z,102778.72
2022-10-26T22:14:37.918Z,102832.78
2022-10-26T22:17:04.410Z,102773.81
2022-10-26T22:19:30.890Z,102776.00
2022-10-26T22:21:57.299Z,102817.47
2022-10-26T22:24:23.710Z,102845.50
2022-10-26T22:26:50.109Z,102824.78
2022-10-26T22:29:16.545Z,102817.22
2022-10-26T22:31:42.937Z,102821.34
2022-10-26T22:34:14.901Z,102809.44
2022-10-26T22:36:41.357Z,102816.94
2022-10-26T22:39:07.812Z,102829.19
2022-10-26T22:41:34.232Z,102827.66
2022-10-26T22:44:00.653Z,102823.22
2022-10-26T22:46:28.194Z,102818.19
2022-10-26T22:48:56.350Z,102825.34
2022-10-26T22:51:24.414Z,102763.56
2022-10-26T22:53:55.040Z,102824.38
2022-10-26T22:56:22.808Z,102828.81
2022-10-26T22:58:49.619Z,102822.94
2022-10-26T23:01:18.225Z,102809.78
2022-10-26T23:03:44.815Z,102816.13
2022-10-26T23:06:16.535Z,102819.78
2022-10-26T23:08:43.299Z,102812.16
2022-10-26T23:11:12.702Z,102816.63
2022-10-26T23:13:39.094Z,102728.03
2022-10-26T23:16:06.584Z,102823.50
2022-10-26T23:18:33.584Z,102761.00
2022-10-26T23:21:00.323Z,102830.84
2022-10-26T23:23:27.705Z,102777.88
2022-10-26T23:25:54.152Z,102819.97
2022-10-26T23:28:20.503Z,102785.78
2022-10-26T23:30:47.465Z,102835.47
2022-10-26T23:33:14.213Z,102780.31
2022-10-26T23:35:40.693Z,102790.81
2022-10-26T23:40:34.414Z,102840.41
2022-10-26T23:43:00.943Z,102818.28
2022-10-26T23:45:27.354Z,102840.59
2022-10-26T23:47:53.805Z,102807.38
2022-10-26T23:50:20.354Z,102847.03
2022-10-26T23:52:48.198Z,102841.56
2022-10-26T23:55:16.617Z,102862.97
2022-10-26T23:57:43.041Z,102861.63
